createdAt,value
2017-09-07T00:01:06.606Z,997.03
2017-09-07T00:02:16.687Z,997.03
2017-09-07T00:03:27.030Z,997.01
2017-09-07T00:04:37.058Z,997.08
2017-09-07T00:05:47.405Z,997.12
2017-09-07T00:06:57.781Z,997.06
2017-09-07T00:08:08.125Z,997.11
2017-09-07T00:09:17.828Z,997.09
2017-09-07T00:10:28.158Z,997.06
2017-09-07T00:11:38.233Z,997.08
2017-09-07T00:12:48.229Z,997.14
2017-09-07T00:13:58.558Z,997.18
2017-09-07T00:15:08.899Z,997.05
2017-09-07T00:16:19.249Z,997.06
2017-09-07T00:17:29.591Z,997.01
2017-09-07T00:18:39.934Z,996.98
2017-09-07T00:19:50.316Z,996.99
2017-09-07T00:21:01.769Z,996.97
2017-09-07T00:22:12.113Z,997
2017-09-07T00:23:22.446Z,996.96
2017-09-07T00:24:32.814Z,996.93
2017-09-07T00:25:42.876Z,996.97
2017-09-07T00:26:53.211Z,996.99
2017-09-07T00:28:03.559Z,997.09
2017-09-07T00:29:13.896Z,997.12
2017-09-07T00:30:24.248Z,997.23
2017-09-07T00:31:34.318Z,997.19
2017-09-07T00:32:44.655Z,997.24
2017-09-07T00:33:54.672Z,997.1
2017-09-07T00:35:04.710Z,997.27
2017-09-07T00:36:15.069Z,997.16
2017-09-07T00:37:25.153Z,997.18
2017-09-07T00:38:35.179Z,997.13
2017-09-07T00:39:45.536Z,997.16
2017-09-07T00:40:55.569Z,997.2
2017-09-07T00:42:05.902Z,997.18
2017-09-07T00:43:15.977Z,997.19
2017-09-07T00:44:26.006Z,997.06
2017-09-07T00:45:36.344Z,997.1
2017-09-07T00:46:46.369Z,997.13
2017-09-07T00:47:56.705Z,997.16
2017-09-07T00:49:06.782Z,997.13
2017-09-07T00:50:17.127Z,997.15
2017-09-07T00:51:27.484Z,997.15
2017-09-07T00:52:37.816Z,997.13
2017-09-07T00:53:47.845Z,997.22
2017-09-07T00:54:58.328Z,997.17
2017-09-07T00:56:08.719Z,997.2
2017-09-07T00:57:19.077Z,997.19
2017-09-07T00:58:29.424Z,997.21
2017-09-07T00:59:39.766Z,997.18
2017-09-07T01:00:50.099Z,997.18
2017-09-07T01:02:00.428Z,997.11
2017-09-07T01:03:10.767Z,997.03
2017-09-07T01:04:21.140Z,997
2017-09-07T01:05:31.494Z,997.04
2017-09-07T01:06:41.523Z,997.03
2017-09-07T01:07:51.888Z,996.98
2017-09-07T01:09:02.224Z,997.03
2017-09-07T01:10:12.587Z,997.06
2017-09-07T01:11:23.490Z,997.06
2017-09-07T01:12:33.896Z,997.03
2017-09-07T01:13:44.253Z,996.98
2017-09-07T01:14:54.601Z,997.07
2017-09-07T01:16:04.642Z,997.11
2017-09-07T01:17:14.990Z,997.17
2017-09-07T01:18:25.064Z,997.17
2017-09-07T01:19:35.084Z,997.26
2017-09-07T01:20:45.433Z,997.23
2017-09-07T01:21:55.457Z,997.24
2017-09-07T01:23:05.798Z,997.27
2017-09-07T01:24:16.183Z,997.26
2017-09-07T01:25:26.735Z,997.23
2017-09-07T01:26:36.762Z,997.24
2017-09-07T01:27:46.791Z,997.23
2017-09-07T01:28:57.143Z,997.25
2017-09-07T01:30:07.539Z,997.21
2017-09-07T01:31:17.884Z,997.13
2017-09-07T01:32:28.228Z,997.18
2017-09-07T01:33:39.117Z,997.18
2017-09-07T01:34:49.470Z,997.23
2017-09-07T01:35:59.808Z,997.27
2017-09-07T01:37:09.844Z,997.33
2017-09-07T01:38:21.941Z,997.29
2017-09-07T01:39:32.276Z,997.34
2017-09-07T01:40:42.623Z,997.43
2017-09-07T01:41:52.330Z,997.45
2017-09-07T01:43:02.063Z,997.45
2017-09-07T01:44:12.098Z,997.49
2017-09-07T01:45:22.112Z,997.5
2017-09-07T01:46:32.443Z,997.49
2017-09-07T01:47:42.776Z,997.48
2017-09-07T01:48:52.810Z,997.46
2017-09-07T01:50:03.198Z,997.47
2017-09-07T01:51:13.548Z,997.49
2017-09-07T01:52:23.941Z,997.46
2017-09-07T01:53:34.341Z,997.48
2017-09-07T01:54:44.694Z,997.47
2017-09-07T01:55:54.873Z,997.48
2017-09-07T01:57:05.220Z,997.44
2017-09-07T01:58:15.249Z,997.46
2017-09-07T01:59:25.642Z,997.43
2017-09-07T02:00:35.348Z,997.41
2017-09-07T02:01:45.375Z,997.44
2017-09-07T02:02:55.738Z,997.44
2017-09-07T02:04:06.082Z,997.45
2017-09-07T02:05:16.125Z,997.47
2017-09-07T02:06:26.460Z,997.47
2017-09-07T02:07:36.814Z,997.38
2017-09-07T02:08:47.156Z,997.43
2017-09-07T02:09:57.184Z,997.38
2017-09-07T02:11:07.535Z,997.46
2017-09-07T02:12:17.250Z,997.42
2017-09-07T02:13:27.594Z,997.47
2017-09-07T02:14:37.944Z,997.43
2017-09-07T02:15:48.280Z,997.41
2017-09-07T02:16:58.693Z,997.43
2017-09-07T02:18:08.733Z,997.46
2017-09-07T02:19:19.126Z,997.41
2017-09-07T02:20:29.473Z,997.48
2017-09-07T02:21:39.515Z,997.44
2017-09-07T02:22:49.918Z,997.44
2017-09-07T02:24:00.248Z,997.41
2017-09-07T02:25:10.273Z,997.4
2017-09-07T02:26:20.625Z,997.46
2017-09-07T02:27:30.349Z,997.47
2017-09-07T02:28:40.731Z,997.43
2017-09-07T02:29:51.932Z,997.49
2017-09-07T02:31:02.285Z,997.48
2017-09-07T02:32:12.305Z,997.48
2017-09-07T02:33:22.747Z,997.46
2017-09-07T02:34:33.379Z,997.44
2017-09-07T02:35:43.733Z,997.41
2017-09-07T02:36:53.758Z,997.41
2017-09-07T02:38:04.110Z,997.37
2017-09-07T02:39:14.137Z,997.41
2017-09-07T02:40:24.213Z,997.39
2017-09-07T02:41:34.556Z,997.42
2017-09-07T02:42:44.582Z,997.44
2017-09-07T02:43:54.605Z,997.4
2017-09-07T02:45:04.977Z,997.38
2017-09-07T02:46:15.324Z,997.38
2017-09-07T02:47:25.035Z,997.38
2017-09-07T02:48:35.381Z,997.37
2017-09-07T02:49:45.733Z,997.45
2017-09-07T02:50:56.074Z,997.47
2017-09-07T02:52:06.641Z,997.51
2017-09-07T02:53:16.978Z,997.49
2017-09-07T02:54:27.012Z,997.48
2017-09-07T02:55:37.349Z,997.47
2017-09-07T02:56:47.684Z,997.55
2017-09-07T02:57:57.709Z,997.5
2017-09-07T02:59:07.422Z,997.47
2017-09-07T03:00:17.781Z,997.49
2017-09-07T03:01:27.801Z,997.48
2017-09-07T03:33:27.385Z,997.43
2017-09-07T03:34:37.715Z,997.43
2017-09-07T03:35:48.037Z,997.42
2017-09-07T03:36:58.365Z,997.4
2017-09-07T03:38:08.381Z,997.39
2017-09-07T03:39:18.757Z,997.38
2017-09-07T03:40:28.463Z,997.38
2017-09-07T03:41:38.795Z,997.4
2017-09-07T03:42:48.837Z,997.35
2017-09-07T03:43:59.174Z,997.36
2017-09-07T03:45:09.245Z,997.39
2017-09-07T03:46:19.271Z,997.36
2017-09-07T03:47:29.614Z,997.35
2017-09-07T03:48:39.953Z,997.34
2017-09-07T03:49:49.965Z,997.34
2017-09-07T03:51:02.453Z,997.39
2017-09-07T03:52:12.476Z,997.33
2017-09-07T03:53:22.816Z,997.38
2017-09-07T03:54:33.149Z,997.3
2017-09-07T03:55:45.450Z,997.36
2017-09-07T03:56:55.872Z,997.32
2017-09-07T03:58:05.904Z,997.28
2017-09-07T03:59:16.279Z,997.3
2017-09-07T04:00:26.625Z,997.28
2017-09-07T04:01:36.969Z,997.27
2017-09-07T04:02:47.377Z,997.29
2017-09-07T04:03:57.722Z,997.23
2017-09-07T04:05:08.056Z,997.27
2017-09-07T04:06:18.087Z,997.25
2017-09-07T04:07:28.442Z,997.27
2017-09-07T04:08:38.522Z,997.25
2017-09-07T04:09:48.562Z,997.28
2017-09-07T04:10:58.621Z,997.22
2017-09-07T04:12:08.949Z,997.27
2017-09-07T04:13:18.978Z,997.33
2017-09-07T04:14:29.076Z,997.36
2017-09-07T04:15:39.422Z,997.38
2017-09-07T04:16:49.801Z,997.31
2017-09-07T04:18:00.149Z,997.31
2017-09-07T04:19:10.488Z,997.3
2017-09-07T04:20:20.508Z,997.32
2017-09-07T04:21:32.307Z,997.33
2017-09-07T04:22:42.694Z,997.27
2017-09-07T04:23:53.039Z,997.33
2017-09-07T04:25:03.377Z,997.39
2017-09-07T04:26:13.408Z,997.4
2017-09-07T04:27:23.751Z,997.35
2017-09-07T04:28:34.092Z,997.34
2017-09-07T04:29:44.116Z,997.36
2017-09-07T04:30:54.454Z,997.4
2017-09-07T04:32:04.525Z,997.42
2017-09-07T04:33:14.891Z,997.41
2017-09-07T04:34:24.908Z,997.44
2017-09-07T04:35:34.946Z,997.43
2017-09-07T04:36:45.323Z,997.43
2017-09-07T04:37:55.076Z,997.38
2017-09-07T04:39:05.417Z,997.43
2017-09-07T04:40:15.444Z,997.44
2017-09-07T04:41:25.811Z,997.49
2017-09-07T04:42:35.530Z,997.48
2017-09-07T04:43:45.563Z,997.51
2017-09-07T04:44:55.275Z,997.57
2017-09-07T04:46:05.630Z,997.67
2017-09-07T04:47:15.969Z,997.61
2017-09-07T04:48:26.306Z,997.63
2017-09-07T04:49:36.703Z,997.61
2017-09-07T04:50:46.731Z,997.65
2017-09-07T04:51:57.081Z,997.79
2017-09-07T04:53:07.100Z,997.84
2017-09-07T04:54:17.119Z,997.87
2017-09-07T04:55:27.201Z,997.88
2017-09-07T04:56:37.534Z,997.9
2017-09-07T04:57:47.559Z,997.85
2017-09-07T04:58:57.927Z,997.84
2017-09-07T05:00:08.250Z,997.91
2017-09-07T05:01:17.962Z,997.86
2017-09-07T05:02:28.304Z,997.83
2017-09-07T05:03:38.310Z,997.78
2017-09-07T05:04:48.662Z,997.8
2017-09-07T05:05:59.013Z,997.84
2017-09-07T05:07:09.406Z,997.93
2017-09-07T05:08:19.443Z,997.96
2017-09-07T05:09:29.805Z,997.85
2017-09-07T05:10:40.159Z,997.92
2017-09-07T05:11:50.181Z,998.08
2017-09-07T05:12:59.881Z,997.99
2017-09-07T05:14:09.899Z,997.93
2017-09-07T05:15:20.478Z,997.83
2017-09-07T05:16:30.499Z,997.78
2017-09-07T05:17:40.848Z,997.75
2017-09-07T05:18:51.186Z,997.77
2017-09-07T05:20:01.522Z,997.8
2017-09-07T05:21:11.545Z,997.78
2017-09-07T05:22:21.877Z,997.74
2017-09-07T05:23:31.584Z,997.75
2017-09-07T05:24:41.370Z,997.75
2017-09-07T05:25:51.752Z,997.81
2017-09-07T05:27:01.776Z,997.8
2017-09-07T05:28:12.115Z,997.76
2017-09-07T05:29:22.145Z,997.82
2017-09-07T05:30:32.490Z,997.81
2017-09-07T05:31:42.842Z,997.76
2017-09-07T05:32:53.174Z,997.75
2017-09-07T05:34:03.533Z,997.76
2017-09-07T05:35:14.772Z,997.7
2017-09-07T05:36:25.125Z,997.74
2017-09-07T05:37:35.464Z,997.66
2017-09-07T05:38:45.797Z,997.67
2017-09-07T05:39:55.852Z,997.63
2017-09-07T05:41:06.109Z,997.67
2017-09-07T05:42:16.848Z,997.7
2017-09-07T05:43:27.185Z,997.64
2017-09-07T05:44:36.886Z,997.66
2017-09-07T05:45:47.496Z,997.69
2017-09-07T05:46:57.844Z,997.63
2017-09-07T05:49:47.703Z,997.69
2017-09-07T05:50:58.049Z,997.64
2017-09-07T05:52:08.907Z,997.63
2017-09-07T05:53:19.292Z,997.61
2017-09-07T05:54:29.000Z,997.61
2017-09-07T05:55:39.354Z,997.58
2017-09-07T06:00:04.514Z,997.54
2017-09-07T06:01:15.058Z,997.52
2017-09-07T06:02:25.090Z,997.51
2017-09-07T06:03:35.455Z,997.51
2017-09-07T06:04:45.820Z,997.49
2017-09-07T06:05:56.173Z,997.53
2017-09-07T06:07:06.498Z,997.58
2017-09-07T06:08:16.201Z,997.49
2017-09-07T06:09:26.244Z,997.54
2017-09-07T06:10:36.584Z,997.58
2017-09-07T06:11:46.931Z,997.52
2017-09-07T06:12:57.269Z,997.47
2017-09-07T06:14:07.612Z,997.45
2017-09-07T06:15:17.949Z,997.49
2017-09-07T06:16:28.275Z,997.52
2017-09-07T06:17:38.350Z,997.5
2017-09-07T06:18:48.698Z,997.42
2017-09-07T06:19:58.408Z,997.4
2017-09-07T06:21:08.750Z,997.44
2017-09-07T06:29:50.772Z,997.41
2017-09-07T06:31:16.576Z,997.46
2017-09-07T06:32:27.856Z,997.51
2017-09-07T06:33:38.502Z,997.41
2017-09-07T06:34:48.587Z,997.49
2017-09-07T06:35:59.155Z,997.41
2017-09-07T06:37:08.917Z,997.54
2017-09-07T06:38:19.253Z,997.41
2017-09-07T06:39:29.271Z,997.45
2017-09-07T06:40:39.609Z,997.43
2017-09-07T06:41:49.949Z,997.41
2017-09-07T06:43:00.295Z,997.45
2017-09-07T06:44:10.642Z,997.44
2017-09-07T06:45:21.043Z,997.44
2017-09-07T06:46:33.334Z,997.44
2017-09-07T06:47:43.437Z,997.46
2017-09-07T06:48:53.789Z,997.47
2017-09-07T06:50:04.165Z,997.4
2017-09-07T06:51:14.235Z,997.41
2017-09-07T06:52:24.275Z,997.45
2017-09-07T06:53:34.617Z,997.44
2017-09-07T06:54:44.650Z,997.4
2017-09-07T06:55:54.670Z,997.44
2017-09-07T06:57:05.067Z,997.46
2017-09-07T06:58:15.084Z,997.52
2017-09-07T06:59:25.111Z,997.61
2017-09-07T07:00:35.127Z,997.47
2017-09-07T07:01:46.388Z,997.5
2017-09-07T07:02:56.787Z,997.52
2017-09-07T07:04:06.816Z,997.56
2017-09-07T07:05:17.155Z,997.51
2017-09-07T07:06:27.516Z,997.62
2017-09-07T07:07:37.542Z,997.59
2017-09-07T07:08:47.976Z,997.55
2017-09-07T07:09:58.015Z,997.58
2017-09-07T07:11:08.349Z,997.6
2017-09-07T07:12:18.380Z,997.61
2017-09-07T07:13:28.741Z,997.58
2017-09-07T07:14:39.133Z,997.65
2017-09-07T07:15:49.480Z,997.62
2017-09-07T07:16:59.508Z,997.68
2017-09-07T07:18:09.863Z,997.75
2017-09-07T07:19:21.586Z,997.77
2017-09-07T07:20:31.957Z,997.8
2017-09-07T07:21:42.327Z,997.75
2017-09-07T07:22:52.674Z,997.79
2017-09-07T07:24:02.718Z,997.87
2017-09-07T07:25:12.753Z,997.86
2017-09-07T07:26:23.146Z,997.88
2017-09-07T07:27:33.507Z,997.91
2017-09-07T07:28:43.858Z,997.89
2017-09-07T07:29:54.202Z,997.94
2017-09-07T07:31:04.229Z,997.91
2017-09-07T07:32:14.575Z,997.91
2017-09-07T07:33:24.912Z,997.88
2017-09-07T07:34:35.254Z,997.88
2017-09-07T07:35:45.290Z,997.94
2017-09-07T07:36:55.316Z,997.92
2017-09-07T07:38:05.708Z,997.93
2017-09-07T07:39:16.037Z,997.92
2017-09-07T07:40:26.076Z,997.9
2017-09-07T07:41:37.767Z,997.9
2017-09-07T07:42:48.125Z,997.92
2017-09-07T07:43:58.473Z,997.93
2017-09-07T07:45:08.509Z,997.87
2017-09-07T07:46:18.866Z,997.89
2017-09-07T07:47:28.897Z,997.93
2017-09-07T07:48:39.332Z,997.9
2017-09-07T07:49:49.736Z,997.92
2017-09-07T07:51:00.693Z,997.94
2017-09-07T07:52:10.725Z,997.94
2017-09-07T07:53:21.307Z,997.86
2017-09-07T07:54:31.737Z,997.84
2017-09-07T07:55:42.168Z,997.9
2017-09-07T07:56:52.555Z,997.85
2017-09-07T07:58:02.950Z,997.88
2017-09-07T07:59:13.425Z,997.83
2017-09-07T08:00:23.856Z,997.92
2017-09-07T08:01:33.973Z,997.93
2017-09-07T08:02:44.051Z,997.97
2017-09-07T08:03:54.454Z,998
2017-09-07T08:05:04.867Z,997.91
2017-09-07T08:06:15.254Z,998.01
2017-09-07T08:07:25.687Z,997.92
2017-09-07T08:08:36.119Z,997.96
2017-09-07T08:09:46.509Z,997.92
2017-09-07T08:10:56.889Z,997.93
2017-09-07T08:12:06.653Z,997.95
2017-09-07T08:13:17.001Z,998.02
2017-09-07T08:14:27.368Z,997.94
2017-09-07T08:15:37.721Z,997.92
2017-09-07T08:16:47.760Z,998.01
2017-09-07T08:17:58.097Z,997.84
2017-09-07T08:19:08.456Z,997.89
2017-09-07T08:20:18.478Z,997.99
2017-09-07T08:21:28.840Z,997.9
2017-09-07T08:22:39.266Z,997.84
2017-09-07T08:23:49.601Z,997.94
2017-09-07T08:24:59.692Z,997.94
2017-09-07T08:26:10.030Z,997.96
2017-09-07T08:27:20.365Z,997.96
2017-09-07T08:28:30.704Z,997.97
2017-09-07T08:29:41.093Z,997.98
2017-09-07T08:30:51.463Z,997.86
2017-09-07T08:32:01.484Z,997.88
2017-09-07T08:33:11.858Z,998.07
2017-09-07T08:34:21.940Z,998
2017-09-07T08:35:31.981Z,997.96
2017-09-07T08:36:42.341Z,997.96
2017-09-07T08:37:52.686Z,997.95
2017-09-07T08:39:03.016Z,997.99
2017-09-07T08:40:13.108Z,998.04
2017-09-07T08:41:23.476Z,998.02
2017-09-07T08:42:33.833Z,998.03
2017-09-07T08:43:44.197Z,998.06
2017-09-07T08:44:54.241Z,998.03
2017-09-07T08:46:04.638Z,998.05
2017-09-07T08:47:14.973Z,998.09
2017-09-07T08:48:25.021Z,998.06
2017-09-07T08:49:35.379Z,998.13
2017-09-07T08:50:45.437Z,998.18
2017-09-07T08:51:55.550Z,997.99
2017-09-07T08:53:05.577Z,998.13
2017-09-07T08:54:15.952Z,998.03
2017-09-07T08:55:26.313Z,998.1
2017-09-07T08:56:36.343Z,998.02
2017-09-07T08:57:46.739Z,998.13
2017-09-07T08:58:57.107Z,997.95
2017-09-07T09:00:07.147Z,998.03
2017-09-07T09:01:17.710Z,998.06
2017-09-07T09:02:28.287Z,998.01
2017-09-07T09:03:38.704Z,998.03
2017-09-07T09:04:49.051Z,998.08
2017-09-07T09:06:01.391Z,998.05
2017-09-07T09:07:11.440Z,998.08
2017-09-07T09:08:21.811Z,997.97
2017-09-07T09:09:31.947Z,998.01
2017-09-07T09:10:42.312Z,998.07
2017-09-07T09:11:52.350Z,997.93
2017-09-07T09:13:02.398Z,997.94
2017-09-07T09:14:12.765Z,998.02
2017-09-07T09:15:23.357Z,998.09
2017-09-07T09:16:33.733Z,998.01
2017-09-07T09:17:43.442Z,997.97
2017-09-07T09:18:53.490Z,997.97
2017-09-07T09:20:03.509Z,998.01
2017-09-07T09:21:13.920Z,997.97
2017-09-07T09:22:24.271Z,997.89
2017-09-07T09:23:34.617Z,997.92
2017-09-07T09:24:44.970Z,997.82
2017-09-07T09:25:55.324Z,997.98
2017-09-07T09:27:05.752Z,997.98
2017-09-07T09:28:18.059Z,998.04
2017-09-07T09:29:28.404Z,997.97
2017-09-07T09:30:38.457Z,997.95
2017-09-07T09:31:48.508Z,997.9
2017-09-07T09:32:59.067Z,997.85
2017-09-07T09:34:08.781Z,997.92
2017-09-07T09:35:19.119Z,997.92
2017-09-07T09:36:29.471Z,997.94
2017-09-07T09:37:41.866Z,997.96
2017-09-07T09:38:52.255Z,997.84
2017-09-07T09:40:02.289Z,997.81
2017-09-07T09:41:12.332Z,997.77
2017-09-07T09:42:22.370Z,997.72
2017-09-07T09:43:32.745Z,997.75
2017-09-07T09:44:43.699Z,997.76
2017-09-07T09:45:56.001Z,997.8
2017-09-07T09:47:06.042Z,997.85
2017-09-07T09:48:16.401Z,997.87
2017-09-07T09:49:28.312Z,997.85
2017-09-07T09:50:40.885Z,997.84
2017-09-07T09:51:50.932Z,997.81
2017-09-07T09:53:00.969Z,997.81
2017-09-07T09:54:11.334Z,997.77
2017-09-07T09:55:24.752Z,997.78
2017-09-07T09:56:35.094Z,997.85
2017-09-07T09:57:45.434Z,997.9
2017-09-07T09:58:55.763Z,997.87
2017-09-07T10:00:05.818Z,997.84
2017-09-07T10:01:15.581Z,997.88
2017-09-07T10:02:25.988Z,997.76
2017-09-07T10:03:36.352Z,997.83
2017-09-07T10:04:46.375Z,997.78
2017-09-07T10:05:56.410Z,997.78
2017-09-07T10:07:06.782Z,997.82
2017-09-07T10:08:16.812Z,997.8
2017-09-07T10:09:27.167Z,997.74
2017-09-07T10:10:37.569Z,997.77
2017-09-07T10:11:47.935Z,997.85
2017-09-07T10:12:58.319Z,997.82
2017-09-07T10:14:08.090Z,997.87
2017-09-07T10:15:18.152Z,997.79
2017-09-07T10:16:28.544Z,997.9
2017-09-07T10:17:38.923Z,997.87
2017-09-07T10:18:49.282Z,997.88
2017-09-07T10:19:59.384Z,997.89
2017-09-07T10:21:09.429Z,997.8
2017-09-07T10:22:19.806Z,997.89
2017-09-07T10:23:30.199Z,997.92
2017-09-07T10:24:40.550Z,997.85
2017-09-07T10:25:50.632Z,997.83
2017-09-07T10:27:00.681Z,997.85
2017-09-07T10:28:10.739Z,997.82
2017-09-07T10:29:20.786Z,997.87
2017-09-07T10:30:30.830Z,997.81
2017-09-07T10:31:40.899Z,997.91
2017-09-07T10:32:51.252Z,997.83
2017-09-07T10:34:01.599Z,997.79
2017-09-07T10:35:11.932Z,997.75
2017-09-07T10:36:22.286Z,997.82
2017-09-07T10:37:32.855Z,997.82
2017-09-07T10:38:42.902Z,997.83
2017-09-07T10:39:52.947Z,997.79
2017-09-07T10:41:03.335Z,997.78
2017-09-07T10:42:13.694Z,997.72
2017-09-07T10:43:24.039Z,997.71
2017-09-07T10:44:34.404Z,997.72
2017-09-07T10:45:44.758Z,997.75
2017-09-07T10:46:54.786Z,997.69
2017-09-07T10:48:05.152Z,997.7
2017-09-07T10:49:15.510Z,997.7
2017-09-07T10:50:25.886Z,997.7
2017-09-07T10:51:36.251Z,997.69
2017-09-07T10:52:46.618Z,997.74
2017-09-07T10:53:58.440Z,997.7
2017-09-07T10:55:08.821Z,997.73
2017-09-07T10:56:19.195Z,997.72
2017-09-07T10:57:29.225Z,997.76
2017-09-07T10:58:39.248Z,997.74
2017-09-07T10:59:49.616Z,997.74
2017-09-07T11:00:59.702Z,997.78
2017-09-07T11:02:10.066Z,997.8
2017-09-07T11:03:20.445Z,997.85
2017-09-07T11:04:30.818Z,997.8
2017-09-07T11:05:41.201Z,997.76
2017-09-07T11:06:51.393Z,997.75
2017-09-07T11:08:01.430Z,997.7
2017-09-07T11:09:11.509Z,997.75
2017-09-07T11:10:21.861Z,997.74
2017-09-07T11:11:32.220Z,997.78
2017-09-07T11:12:42.615Z,997.71
2017-09-07T11:13:52.980Z,997.79
2017-09-07T11:15:03.010Z,997.77
2017-09-07T11:16:13.390Z,997.65
2017-09-07T11:17:23.445Z,997.71
2017-09-07T11:18:33.792Z,997.8
2017-09-07T11:19:43.833Z,997.73
2017-09-07T11:20:54.206Z,997.78
2017-09-07T11:22:03.929Z,997.75
2017-09-07T11:23:14.574Z,997.74
2017-09-07T11:24:24.980Z,997.79
2017-09-07T11:25:35.017Z,997.71
2017-09-07T11:26:45.363Z,997.71
2017-09-07T11:27:55.740Z,997.72
2017-09-07T11:29:06.106Z,997.72
2017-09-07T11:30:16.469Z,997.76
2017-09-07T11:31:26.803Z,997.68
2017-09-07T11:32:37.172Z,997.73
2017-09-07T11:33:47.524Z,997.67
2017-09-07T11:34:57.559Z,997.7
2017-09-07T11:36:07.593Z,997.74
2017-09-07T11:37:17.938Z,997.83
2017-09-07T11:38:27.980Z,997.81
2017-09-07T11:39:38.004Z,997.83
2017-09-07T11:40:48.351Z,997.75
2017-09-07T11:41:59.007Z,997.76
2017-09-07T11:43:09.394Z,997.83
2017-09-07T11:44:19.773Z,997.78
2017-09-07T11:45:29.827Z,997.81
2017-09-07T11:46:40.179Z,997.79
2017-09-07T11:47:50.573Z,997.86
2017-09-07T11:49:02.023Z,997.86
2017-09-07T11:50:12.380Z,997.84
2017-09-07T11:51:22.732Z,997.8
2017-09-07T11:52:33.090Z,997.79
2017-09-07T11:53:43.486Z,997.85
2017-09-07T11:54:53.834Z,997.88
2017-09-07T11:56:04.193Z,997.85
2017-09-07T11:57:14.551Z,997.81
2017-09-07T11:58:24.899Z,997.72
2017-09-07T11:59:34.973Z,997.77
2017-09-07T12:00:45.351Z,997.87
2017-09-07T12:01:55.705Z,997.76
2017-09-07T12:03:06.054Z,997.78
2017-09-07T12:04:16.097Z,997.83
2017-09-07T12:05:26.189Z,997.83
2017-09-07T12:06:36.237Z,997.83
2017-09-07T12:07:46.551Z,997.89
2017-09-07T12:08:56.930Z,997.78
2017-09-07T12:10:06.950Z,997.86
2017-09-07T12:11:17.297Z,997.81
2017-09-07T12:12:27.637Z,997.81
2017-09-07T12:13:37.676Z,997.85
2017-09-07T12:14:48.032Z,997.93
2017-09-07T12:15:58.056Z,997.83
2017-09-07T12:17:08.478Z,997.82
2017-09-07T12:18:18.517Z,997.86
2017-09-07T12:19:28.551Z,997.86
2017-09-07T12:20:38.573Z,997.83
2017-09-07T12:21:48.612Z,997.78
2017-09-07T12:23:00.130Z,997.73
2017-09-07T12:24:10.506Z,997.75
2017-09-07T12:25:20.869Z,997.74
2017-09-07T12:26:30.915Z,997.75
2017-09-07T12:27:42.033Z,997.75
2017-09-07T12:28:52.445Z,997.82
2017-09-07T12:30:02.798Z,997.76
2017-09-07T12:31:12.518Z,997.77
2017-09-07T12:32:22.539Z,997.78
2017-09-07T12:33:32.569Z,997.8
2017-09-07T12:34:42.944Z,997.78
2017-09-07T12:35:53.307Z,997.69
2017-09-07T12:37:03.664Z,997.68
2017-09-07T12:38:14.035Z,997.64
2017-09-07T12:39:24.075Z,997.62
2017-09-07T12:40:34.422Z,997.55
2017-09-07T12:41:44.778Z,997.6
2017-09-07T12:42:55.185Z,997.54
2017-09-07T12:44:05.232Z,997.56
2017-09-07T12:45:15.599Z,997.57
2017-09-07T12:46:25.995Z,997.5
2017-09-07T12:47:37.948Z,997.6
2017-09-07T12:48:48.307Z,997.57
2017-09-07T12:49:58.667Z,997.6
2017-09-07T12:51:10.952Z,997.55
2017-09-07T12:53:46.323Z,997.57
2017-09-07T12:54:56.672Z,997.53
2017-09-07T12:56:06.724Z,997.57
2017-09-07T12:57:17.067Z,997.54
2017-09-07T12:58:27.488Z,997.48
2017-09-07T12:59:37.557Z,997.49
2017-09-07T13:00:47.593Z,997.56
2017-09-07T13:01:57.646Z,997.51
2017-09-07T13:03:08.024Z,997.52
2017-09-07T13:04:18.631Z,997.44
2017-09-07T13:05:29.006Z,997.41
2017-09-07T13:06:39.368Z,997.37
2017-09-07T13:07:49.725Z,997.4
2017-09-07T13:09:00.081Z,997.52
2017-09-07T13:10:10.123Z,997.39
2017-09-07T13:11:20.485Z,997.41
2017-09-07T13:12:30.511Z,997.39
2017-09-07T13:13:40.870Z,997.33
2017-09-07T13:14:50.912Z,997.39
2017-09-07T13:16:01.595Z,997.41
2017-09-07T13:17:11.965Z,997.31
2017-09-07T13:18:24.375Z,997.29
2017-09-07T13:19:34.762Z,997.28
2017-09-07T13:20:45.161Z,997.28
2017-09-07T13:21:55.563Z,997.34
2017-09-07T13:23:05.998Z,997.38
2017-09-07T13:24:16.056Z,997.37
2017-09-07T13:25:26.450Z,997.34
2017-09-07T13:26:36.499Z,997.38
2017-09-07T13:27:46.588Z,997.35
2017-09-07T13:28:56.644Z,997.47
2017-09-07T13:30:06.391Z,997.41
2017-09-07T13:31:17.007Z,997.38
2017-09-07T13:32:27.369Z,997.38
2017-09-07T13:33:37.771Z,997.31
2017-09-07T13:34:48.136Z,997.48
2017-09-07T13:35:58.501Z,997.43
2017-09-07T13:37:08.882Z,997.37
2017-09-07T13:38:18.927Z,997.42
2017-09-07T13:39:29.070Z,997.43
2017-09-07T13:40:39.123Z,997.31
2017-09-07T13:41:48.844Z,997.45
2017-09-07T13:42:59.200Z,997.37
2017-09-07T13:44:09.540Z,997.39
2017-09-07T13:45:21.296Z,997.37
2017-09-07T13:46:31.651Z,997.4
2017-09-07T13:47:41.368Z,997.4
2017-09-07T13:48:51.719Z,997.34
2017-09-07T13:50:02.087Z,997.38
2017-09-07T13:51:12.609Z,997.38
2017-09-07T13:52:22.975Z,997.4
2017-09-07T13:53:33.332Z,997.34
2017-09-07T13:54:43.376Z,997.33
2017-09-07T13:55:53.446Z,997.35
2017-09-07T13:57:03.856Z,997.33
2017-09-07T13:58:13.910Z,997.3
2017-09-07T13:59:23.970Z,997.34
2017-09-07T14:00:34.039Z,997.31
2017-09-07T14:01:44.400Z,997.35
2017-09-07T14:02:54.765Z,997.34
2017-09-07T14:04:05.132Z,997.35
2017-09-07T14:05:15.513Z,997.28
2017-09-07T14:06:25.873Z,997.36
2017-09-07T14:07:37.879Z,997.3
2017-09-07T14:08:48.469Z,997.37
2017-09-07T14:09:58.825Z,997.43
2017-09-07T14:11:08.566Z,997.36
2017-09-07T14:12:18.617Z,997.35
2017-09-07T14:13:28.966Z,997.36
2017-09-07T14:14:39.368Z,997.39
2017-09-07T14:15:49.102Z,997.38
2017-09-07T14:16:59.462Z,997.41
2017-09-07T14:18:09.889Z,997.38
2017-09-07T14:19:20.260Z,997.42
2017-09-07T14:20:30.675Z,997.41
2017-09-07T14:21:41.034Z,997.4
2017-09-07T14:22:51.600Z,997.41
2017-09-07T14:24:01.943Z,997.5
2017-09-07T14:25:12.300Z,997.34
2017-09-07T14:26:22.669Z,997.35
2017-09-07T14:27:33.029Z,997.37
2017-09-07T14:28:43.386Z,997.34
2017-09-07T14:29:53.423Z,997.34
2017-09-07T14:31:03.788Z,997.4
2017-09-07T14:32:14.162Z,997.33
2017-09-07T14:33:24.518Z,997.34
2017-09-07T14:34:34.887Z,997.25
2017-09-07T14:35:45.242Z,997.27
2017-09-07T14:36:54.977Z,997.28
2017-09-07T14:38:05.069Z,997.26
2017-09-07T14:39:15.120Z,997.24
2017-09-07T14:40:25.477Z,997.25
2017-09-07T14:41:35.832Z,997.25
2017-09-07T14:42:48.150Z,997.23
2017-09-07T14:43:57.872Z,997.19
2017-09-07T14:45:08.244Z,997.18
2017-09-07T14:46:18.288Z,997.19
2017-09-07T14:47:28.324Z,997.2
2017-09-07T14:48:38.678Z,997.22
2017-09-07T14:49:49.039Z,997.18
2017-09-07T14:50:59.425Z,997.22
2017-09-07T14:52:09.797Z,997.18
2017-09-07T14:53:20.154Z,997.23
2017-09-07T14:54:30.539Z,997.24
2017-09-07T14:55:40.967Z,997.23
2017-09-07T14:56:51.037Z,997.29
2017-09-07T14:58:01.433Z,997.33
2017-09-07T14:59:11.882Z,997.36
2017-09-07T15:00:21.920Z,997.41
2017-09-07T15:01:32.335Z,997.39
2017-09-07T15:02:42.387Z,997.46
2017-09-07T15:03:52.762Z,997.33
2017-09-07T15:05:03.148Z,997.39
2017-09-07T15:06:13.510Z,997.42
2017-09-07T15:07:23.909Z,997.52
2017-09-07T15:08:33.633Z,997.35
2017-09-07T15:09:43.970Z,997.4
2017-09-07T15:10:53.679Z,997.4
2017-09-07T15:12:04.042Z,997.38
2017-09-07T15:13:14.472Z,997.39
2017-09-07T15:14:24.499Z,997.33
2017-09-07T15:15:34.551Z,997.32
2017-09-07T15:16:44.891Z,997.37
2017-09-07T15:17:55.261Z,997.32
2017-09-07T15:19:05.368Z,997.29
2017-09-07T15:20:15.106Z,997.31
2017-09-07T15:21:25.160Z,997.26
2017-09-07T15:22:35.193Z,997.28
2017-09-07T15:23:45.565Z,997.3
2017-09-07T15:24:55.944Z,997.31
2017-09-07T15:26:05.690Z,997.25